sensor_id;sensor_type;location;lat;lon;timestamp;pressure;altitude;pressure_sealevel;temperature;humidity
64253;BME280;50592;52.958;-7.470;2023-02-12T00:00:07;102369.31;;;7.56;100.00
64253;BME280;50592;52.958;-7.470;2023-02-12T00:02:40;102374.56;;;7.56;100.00
64253;BME280;50592;52.958;-7.470;2023-02-12T00:05:06;102381.41;;;7.61;100.00
64253;BME280;50592;52.958;-7.470;2023-02-12T00:07:32;102373.28;;;7.65;100.00
64253;BME280;50592;52.958;-7.470;2023-02-12T00:09:58;102371.56;;;7.64;100.00
64253;BME280;50592;52.958;-7.470;2023-02-12T00:12:24;102375.03;;;7.65;100.00
64253;BME280;50592;52.958;-7.470;2023-02-12T00:14:49;102379.63;;;7.61;100.00
64253;BME280;50592;52.958;-7.470;2023-02-12T00:17:15;102384.19;;;7.57;100.00
64253;BME280;50592;52.958;-7.470;2023-02-12T00:19:41;102379.22;;;7.51;100.00
64253;BME280;50592;52.958;-7.470;2023-02-12T00:22:07;102380.44;;;7.44;100.00
64253;BME280;50592;52.958;-7.470;2023-02-12T00:24:33;102383.38;;;7.38;100.00
64253;BME280;50592;52.958;-7.470;2023-02-12T00:26:59;102374.03;;;7.32;100.00
64253;BME280;50592;52.958;-7.470;2023-02-12T00:29:24;102379.34;;;7.30;100.00
64253;BME280;50592;52.958;-7.470;2023-02-12T00:31:50;102372.53;;;7.26;100.00
64253;BME280;50592;52.958;-7.470;2023-02-12T00:34:16;102381.34;;;7.25;100.00
64253;BME280;50592;52.958;-7.470;2023-02-12T00:36:42;102373.47;;;7.25;100.00
64253;BME280;50592;52.958;-7.470;2023-02-12T00:39:09;102382.13;;;7.27;100.00
64253;BME280;50592;52.958;-7.470;2023-02-12T00:41:35;102375.38;;;7.22;100.00
64253;BME280;50592;52.958;-7.470;2023-02-12T00:44:00;102372.81;;;7.20;100.00
64253;BME280;50592;52.958;-7.470;2023-02-12T00:46:27;102375.53;;;7.18;100.00
64253;BME280;50592;52.958;-7.470;2023-02-12T00:48:53;102370.34;;;7.17;100.00
64253;BME280;50592;52.958;-7.470;2023-02-12T00:51:19;102378.22;;;7.17;100.00
64253;BME280;50592;52.958;-7.470;2023-02-12T00:53:45;102365.06;;;7.17;100.00
64253;BME280;50592;52.958;-7.470;2023-02-12T00:56:12;102366.81;;;7.18;100.00
64253;BME280;50592;52.958;-7.470;2023-02-12T00:58:37;102366.00;;;7.16;100.00
64253;BME280;50592;52.958;-7.470;2023-02-12T01:01:05;102372.22;;;7.15;100.00
64253;BME280;50592;52.958;-7.470;2023-02-12T01:03:31;102371.44;;;7.13;100.00
64253;BME280;50592;52.958;-7.470;2023-02-12T01:05:58;102364.41;;;7.13;100.00
64253;BME280;50592;52.958;-7.470;2023-02-12T01:08:24;102365.22;;;7.14;100.00
64253;BME280;50592;52.958;-7.470;2023-02-12T01:10:58;102361.75;;;7.13;100.00
64253;BME280;50592;52.958;-7.470;2023-02-12T01:13:25;102355.88;;;7.08;100.00
64253;BME280;50592;52.958;-7.470;2023-02-12T01:16:06;102357.41;;;7.12;100.00
64253;BME280;50592;52.958;-7.470;2023-02-12T01:18:37;102354.09;;;7.09;100.00
64253;BME280;50592;52.958;-7.470;2023-02-12T01:21:22;102355.66;;;7.13;100.00
64253;BME280;50592;52.958;-7.470;2023-02-12T01:23:49;102340.88;;;7.10;100.00
64253;BME280;50592;52.958;-7.470;2023-02-12T01:26:16;102336.38;;;7.12;100.00
64253;BME280;50592;52.958;-7.470;2023-02-12T01:28:43;102344.19;;;7.14;100.00
64253;BME280;50592;52.958;-7.470;2023-02-12T01:31:12;102339.00;;;7.12;100.00
64253;BME280;50592;52.958;-7.470;2023-02-12T01:33:38;102337.25;;;7.13;100.00
64253;BME280;50592;52.958;-7.470;2023-02-12T01:36:05;102335.41;;;7.15;100.00
64253;BME280;50592;52.958;-7.470;2023-02-12T01:38:31;102335.41;;;7.15;100.00
64253;BME280;50592;52.958;-7.470;2023-02-12T01:41:10;102326.56;;;7.16;100.00
64253;BME280;50592;52.958;-7.470;2023-02-12T01:43:38;102330.06;;;7.16;100.00
64253;BME280;50592;52.958;-7.470;2023-02-12T01:46:05;102324.72;;;7.18;100.00
64253;BME280;50592;52.958;-7.470;2023-02-12T01:48:51;102329.84;;;7.21;100.00
64253;BME280;50592;52.958;-7.470;2023-02-12T01:51:19;102323.63;;;7.22;100.00
64253;BME280;50592;52.958;-7.470;2023-02-12T01:53:50;102320.84;;;7.25;100.00
64253;BME280;50592;52.958;-7.470;2023-02-12T01:56:19;102315.59;;;7.25;100.00
64253;BME280;50592;52.958;-7.470;2023-02-12T01:58:46;102319.16;;;7.24;100.00
64253;BME280;50592;52.958;-7.470;2023-02-12T02:01:19;102312.88;;;7.27;100.00
64253;BME280;50592;52.958;-7.470;2023-02-12T02:03:51;102323.31;;;7.28;100.00
64253;BME280;50592;52.958;-7.470;2023-02-12T02:06:22;102318.06;;;7.28;100.00
64253;BME280;50592;52.958;-7.470;2023-02-12T02:08:52;102326.03;;;7.27;100.00
64253;BME280;50592;52.958;-7.470;2023-02-12T02:11:19;102320.06;;;7.23;100.00
64253;BME280;50592;52.958;-7.470;2023-02-12T02:14:04;102309.69;;;7.20;100.00
64253;BME280;50592;52.958;-7.470;2023-02-12T02:22:30;102309.78;;;7.18;100.00
64253;BME280;50592;52.958;-7.470;2023-02-12T02:43:18;102317.22;;;7.10;100.00
64253;BME280;50592;52.958;-7.470;2023-02-12T02:45:55;102304.00;;;7.12;100.00
64253;BME280;50592;52.958;-7.470;2023-02-12T02:48:29;102310.94;;;7.13;100.00
64253;BME280;50592;52.958;-7.470;2023-02-12T02:51:05;102301.97;;;7.17;100.00
64253;BME280;50592;52.958;-7.470;2023-02-12T02:53:44;102303.69;;;7.18;100.00
64253;BME280;50592;52.958;-7.470;2023-02-12T02:56:15;102307.00;;;7.22;100.00
64253;BME280;50592;52.958;-7.470;2023-02-12T02:58:50;102301.56;;;7.25;100.00
64253;BME280;50592;52.958;-7.470;2023-02-12T03:01:21;102305.78;;;7.29;100.00
64253;BME280;50592;52.958;-7.470;2023-02-12T03:03:54;102305.69;;;7.30;100.00
64253;BME280;50592;52.958;-7.470;2023-02-12T03:06:26;102302.06;;;7.33;100.00
64253;BME280;50592;52.958;-7.470;2023-02-12T03:08:57;102301.00;;;7.37;100.00
64253;BME280;50592;52.958;-7.470;2023-02-12T03:11:28;102304.53;;;7.36;100.00
64253;BME280;50592;52.958;-7.470;2023-02-12T03:14:09;102295.81;;;7.36;100.00
64253;BME280;50592;52.958;-7.470;2023-02-12T03:16:45;102295.81;;;7.36;100.00
64253;BME280;50592;52.958;-7.470;2023-02-12T03:19:18;102297.66;;;7.34;100.00
64253;BME280;50592;52.958;-7.470;2023-02-12T03:21:56;102288.81;;;7.35;100.00
64253;BME280;50592;52.958;-7.470;2023-02-12T03:27:47;102285.13;;;7.39;100.00
64253;BME280;50592;52.958;-7.470;2023-02-12T03:30:15;102287.91;;;7.36;100.00
64253;BME280;50592;52.958;-7.470;2023-02-12T03:33:16;102281.00;;;7.33;100.00
64253;BME280;50592;52.958;-7.470;2023-02-12T03:36:02;102281.25;;;7.28;100.00
64253;BME280;50592;52.958;-7.470;2023-02-12T03:38:44;102278.69;;;7.27;100.00
64253;BME280;50592;52.958;-7.470;2023-02-12T03:43:58;102274.03;;;7.14;100.00
64253;BME280;50592;52.958;-7.470;2023-02-12T03:46:40;102275.66;;;7.17;100.00
64253;BME280;50592;52.958;-7.470;2023-02-12T03:49:30;102280.09;;;7.16;100.00
64253;BME280;50592;52.958;-7.470;2023-02-12T03:51:57;102273.19;;;7.14;100.00
64253;BME280;50592;52.958;-7.470;2023-02-12T03:54:24;102267.16;;;7.12;100.00
64253;BME280;50592;52.958;-7.470;2023-02-12T03:57:03;102266.22;;;7.13;100.00
64253;BME280;50592;52.958;-7.470;2023-02-12T03:59:30;102264.78;;;7.07;100.00
64253;BME280;50592;52.958;-7.470;2023-02-12T04:01:57;102263.75;;;7.10;100.00
64253;BME280;50592;52.958;-7.470;2023-02-12T04:04:24;102268.78;;;7.14;100.00
64253;BME280;50592;52.958;-7.470;2023-02-12T04:06:51;102264.31;;;7.16;100.00
64253;BME280;50592;52.958;-7.470;2023-02-12T04:09:19;102263.38;;;7.17;100.00
64253;BME280;50592;52.958;-7.470;2023-02-12T04:12:31;102258.13;;;7.17;100.00
64253;BME280;50592;52.958;-7.470;2023-02-12T04:14:45;102261.28;;;7.24;100.00
64253;BME280;50592;52.958;-7.470;2023-02-12T04:33:49;102252.94;;;7.34;100.00
64253;BME280;50592;52.958;-7.470;2023-02-12T04:36:26;102246.66;;;7.36;100.00
64253;BME280;50592;52.958;-7.470;2023-02-12T04:38:59;102245.75;;;7.37;100.00
64253;BME280;50592;52.958;-7.470;2023-02-12T04:41:27;102244.09;;;7.35;100.00
64253;BME280;50592;52.958;-7.470;2023-02-12T04:43:55;102241.63;;;7.31;100.00
64253;BME280;50592;52.958;-7.470;2023-02-12T04:46:20;102236.44;;;7.30;100.00
64253;BME280;50592;52.958;-7.470;2023-02-12T04:48:55;102244.09;;;7.35;100.00
64253;BME280;50592;52.958;-7.470;2023-02-12T04:51:22;102246.06;;;7.31;100.00
64253;BME280;50592;52.958;-7.470;2023-02-12T04:53:48;102241.56;;;7.33;100.00
64253;BME280;50592;52.958;-7.470;2023-02-12T04:56:15;102233.75;;;7.31;100.00
64253;BME280;50592;52.958;-7.470;2023-02-12T04:58:41;102244.19;;;7.33;100.00
64253;BME280;50592;52.958;-7.470;2023-02-12T05:01:08;102237.94;;;7.36;100.00
64253;BME280;50592;52.958;-7.470;2023-02-12T05:03:35;102231.72;;;7.37;100.00
64253;BME280;50592;52.958;-7.470;2023-02-12T05:06:06;102230.63;;;7.41;100.00
64253;BME280;50592;52.958;-7.470;2023-02-12T05:08:32;102235.13;;;7.39;100.00
64253;BME280;50592;52.958;-7.470;2023-02-12T05:11:06;102245.50;;;7.42;100.00
64253;BME280;50592;52.958;-7.470;2023-02-12T05:13:32;102234.19;;;7.40;100.00
64253;BME280;50592;52.958;-7.470;2023-02-12T05:15:58;102238.44;;;7.42;100.00
64253;BME280;50592;52.958;-7.470;2023-02-12T05:18:24;102248.81;;;7.45;100.00
64253;BME280;50592;52.958;-7.470;2023-02-12T05:20:57;102245.03;;;7.51;100.00
64253;BME280;50592;52.958;-7.470;2023-02-12T05:23:29;102244.88;;;7.54;100.00
64253;BME280;50592;52.958;-7.470;2023-02-12T05:26:00;102244.78;;;7.56;100.00
64253;BME280;50592;52.958;-7.470;2023-02-12T05:28:27;102242.31;;;7.53;100.00
64253;BME280;50592;52.958;-7.470;2023-02-12T05:30:53;102241.63;;;7.49;100.00
64253;BME280;50592;52.958;-7.470;2023-02-12T05:33:20;102241.69;;;7.48;100.00
64253;BME280;50592;52.958;-7.470;2023-02-12T05:35:45;102241.78;;;7.46;100.00
64253;BME280;50592;52.958;-7.470;2023-02-12T05:38:11;102247.97;;;7.45;100.00
64253;BME280;50592;52.958;-7.470;2023-02-12T05:40:37;102246.25;;;7.44;100.00
64253;BME280;50592;52.958;-7.470;2023-02-12T05:43:04;102245.50;;;7.42;100.00
64253;BME280;50592;52.958;-7.470;2023-02-12T05:45:31;102241.22;;;7.39;100.00
64253;BME280;50592;52.958;-7.470;2023-02-12T05:47:57;102237.94;;;7.36;100.00
64253;BME280;50592;52.958;-7.470;2023-02-12T05:50:23;102243.88;;;7.39;100.00
64253;BME280;50592;52.958;-7.470;2023-02-12T05:53:01;102237.63;;;7.42;100.00
64253;BME280;50592;52.958;-7.470;2023-02-12T05:55:27;102248.28;;;7.39;100.00
64253;BME280;50592;52.958;-7.470;2023-02-12T05:57:53;102231.66;;;7.38;100.00
64253;BME280;50592;52.958;-7.470;2023-02-12T06:00:19;102235.97;;;7.39;100.00
64253;BME280;50592;52.958;-7.470;2023-02-12T06:02:45;102242.00;;;7.41;100.00
64253;BME280;50592;52.958;-7.470;2023-02-12T06:05:11;102237.78;;;7.39;100.00
64253;BME280;50592;52.958;-7.470;2023-02-12T06:07:37;102229.81;;;7.40;100.00
64253;BME280;50592;52.958;-7.470;2023-02-12T06:10:03;102234.97;;;7.42;100.00
64253;BME280;50592;52.958;-7.470;2023-02-12T06:12:28;102237.53;;;7.43;100.00
64253;BME280;50592;52.958;-7.470;2023-02-12T06:14:54;102238.44;;;7.42;100.00
64253;BME280;50592;52.958;-7.470;2023-02-12T06:17:20;102233.97;;;7.44;100.00
64253;BME280;50592;52.958;-7.470;2023-02-12T06:19:46;102236.59;;;7.44;100.00
64253;BME280;50592;52.958;-7.470;2023-02-12T06:22:12;102238.28;;;7.45;100.00
64253;BME280;50592;52.958;-7.470;2023-02-12T06:24:37;102219.94;;;7.44;100.00
64253;BME280;50592;52.958;-7.470;2023-02-12T06:27:03;102221.91;;;7.40;100.00
64253;BME280;50592;52.958;-7.470;2023-02-12T06:29:29;102227.16;;;7.40;100.00
64253;BME280;50592;52.958;-7.470;2023-02-12T06:31:54;102225.38;;;7.41;100.00
64253;BME280;50592;52.958;-7.470;2023-02-12T06:34:20;102225.38;;;7.41;100.00
64253;BME280;50592;52.958;-7.470;2023-02-12T06:36:46;102219.34;;;7.39;100.00
64253;BME280;50592;52.958;-7.470;2023-02-12T06:39:14;102216.56;;;7.42;100.00
64253;BME280;50592;52.958;-7.470;2023-02-12T06:41:40;102219.44;;;7.37;100.00
64253;BME280;50592;52.958;-7.470;2023-02-12T06:44:06;102213.22;;;7.38;100.00
64253;BME280;50592;52.958;-7.470;2023-02-12T06:46:33;102212.28;;;7.39;100.00
64253;BME280;50592;52.958;-7.470;2023-02-12T06:48:59;102215.00;;;7.38;100.00
64253;BME280;50592;52.958;-7.470;2023-02-12T06:51:27;102217.56;;;7.39;100.00
64253;BME280;50592;52.958;-7.470;2023-02-12T06:53:54;102215.09;;;7.36;100.00
64253;BME280;50592;52.958;-7.470;2023-02-12T06:56:22;102212.47;;;7.36;100.00
64253;BME280;50592;52.958;-7.470;2023-02-12T06:58:56;102211.53;;;7.37;100.00
64253;BME280;50592;52.958;-7.470;2023-02-12T07:01:24;102210.69;;;7.37;100.00
64253;BME280;50592;52.958;-7.470;2023-02-12T07:03:55;102214.19;;;7.37;100.00
64253;BME280;50592;52.958;-7.470;2023-02-12T07:06:22;102217.78;;;7.35;100.00
64253;BME280;50592;52.958;-7.470;2023-02-12T07:08:48;102217.78;;;7.35;100.00
64253;BME280;50592;52.958;-7.470;2023-02-12T07:11:16;102222.16;;;7.36;100.00
64253;BME280;50592;52.958;-7.470;2023-02-12T07:13:43;102221.38;;;7.34;100.00
64253;BME280;50592;52.958;-7.470;2023-02-12T07:16:11;102226.53;;;7.35;100.00
64253;BME280;50592;52.958;-7.470;2023-02-12T07:18:38;102227.50;;;7.34;100.00
64253;BME280;50592;52.958;-7.470;2023-02-12T07:21:06;102230.03;;;7.36;100.00
64253;BME280;50592;52.958;-7.470;2023-02-12T07:23:33;102227.50;;;7.34;100.00
64253;BME280;50592;52.958;-7.470;2023-02-12T07:26:04;102233.50;;;7.36;100.00
64253;BME280;50592;52.958;-7.470;2023-02-12T07:28:31;102229.19;;;7.35;100.00
64253;BME280;50592;52.958;-7.470;2023-02-12T07:30:59;102223.06;;;7.35;100.00
64253;BME280;50592;52.958;-7.470;2023-02-12T07:33:25;102225.69;;;7.35;100.00
64253;BME280;50592;52.958;-7.470;2023-02-12T07:35:50;102227.56;;;7.32;100.00
64253;BME280;50592;52.958;-7.470;2023-02-12T07:38:16;102231.03;;;7.33;100.00
64253;BME280;50592;52.958;-7.470;2023-02-12T07:40:42;102228.47;;;7.31;100.00
64253;BME280;50592;52.958;-7.470;2023-02-12T07:43:08;102237.22;;;7.32;100.00
64253;BME280;50592;52.958;-7.470;2023-02-12T07:45:35;102232.91;;;7.31;100.00
64253;BME280;50592;52.958;-7.470;2023-02-12T07:48:01;102230.13;;;7.34;100.00
64253;BME280;50592;52.958;-7.470;2023-02-12T07:50:26;102235.38;;;7.34;100.00
64253;BME280;50592;52.958;-7.470;2023-02-12T07:52:52;102224.94;;;7.32;100.00
64253;BME280;50592;52.958;-7.470;2023-02-12T07:55:18;102229.19;;;7.35;100.00
64253;BME280;50592;52.958;-7.470;2023-02-12T07:57:44;102237.94;;;7.36;100.00
64253;BME280;50592;52.958;-7.470;2023-02-12T08:00:10;102238.69;;;7.38;100.00
64253;BME280;50592;52.958;-7.470;2023-02-12T08:02:38;102237.00;;;7.37;100.00
64253;BME280;50592;52.958;-7.470;2023-02-12T08:05:05;102244.97;;;7.35;100.00
64253;BME280;50592;52.958;-7.470;2023-02-12T08:07:31;102248.44;;;7.36;100.00
64253;BME280;50592;52.958;-7.470;2023-02-12T08:09:57;102256.25;;;7.37;100.00
64253;BME280;50592;52.958;-7.470;2023-02-12T08:12:22;102248.28;;;7.39;100.00
64253;BME280;50592;52.958;-7.470;2023-02-12T08:14:48;102251.69;;;7.41;100.00
64253;BME280;50592;52.958;-7.470;2023-02-12T08:17:14;102250.94;;;7.39;100.00
64253;BME280;50592;52.958;-7.470;2023-02-12T08:19:40;102255.25;;;7.40;100.00
64253;BME280;50592;52.958;-7.470;2023-02-12T08:22:05;102242.25;;;7.37;100.00
64253;BME280;50592;52.958;-7.470;2023-02-12T08:24:31;102244.88;;;7.37;100.00
64253;BME280;50592;52.958;-7.470;2023-02-12T08:26:57;102252.78;;;7.37;100.00
64253;BME280;50592;52.958;-7.470;2023-02-12T08:29:29;102254.22;;;7.42;100.00
64253;BME280;50592;52.958;-7.470;2023-02-12T08:31:58;102254.53;;;7.36;100.00
64253;BME280;50592;52.958;-7.470;2023-02-12T08:34:26;102257.97;;;7.38;100.00
64253;BME280;50592;52.958;-7.470;2023-02-12T08:36:54;102258.81;;;7.39;100.00
64253;BME280;50592;52.958;-7.470;2023-02-12T08:39:21;102257.81;;;7.41;100.00
64253;BME280;50592;52.958;-7.470;2023-02-12T08:41:48;102254.22;;;7.42;100.00
64253;BME280;50592;52.958;-7.470;2023-02-12T08:44:14;102257.56;;;7.46;100.00
64253;BME280;50592;52.958;-7.470;2023-02-12T08:46:48;102254.78;;;7.49;100.00
64253;BME280;50592;52.958;-7.470;2023-02-12T08:49:17;102248.66;;;7.49;100.00
64253;BME280;50592;52.958;-7.470;2023-02-12T08:51:46;102249.44;;;7.51;100.00
64253;BME280;50592;52.958;-7.470;2023-02-12T08:54:16;102242.31;;;7.53;100.00
64253;BME280;50592;52.958;-7.470;2023-02-12T08:56:43;102250.97;;;7.55;100.00
64253;BME280;50592;52.958;-7.470;2023-02-12T08:59:13;102257.09;;;7.55;100.00
64253;BME280;50592;52.958;-7.470;2023-02-12T09:01:39;102252.75;;;7.54;100.00
64253;BME280;50592;52.958;-7.470;2023-02-12T09:04:14;102259.72;;;7.55;100.00
64253;BME280;50592;52.958;-7.470;2023-02-12T09:06:42;102260.66;;;7.54;100.00
64253;BME280;50592;52.958;-7.470;2023-02-12T09:09:08;102257.88;;;7.57;100.00
64253;BME280;50592;52.958;-7.470;2023-02-12T09:11:34;102255.00;;;7.62;100.00
64253;BME280;50592;52.958;-7.470;2023-02-12T09:14:02;102252.13;;;7.67;100.00
64253;BME280;50592;52.958;-7.470;2023-02-12T09:16:30;102253.66;;;7.71;100.00
64253;BME280;50592;52.958;-7.470;2023-02-12T09:18:56;102261.38;;;7.74;100.00
64253;BME280;50592;52.958;-7.470;2023-02-12T09:21:22;102261.38;;;7.74;100.00
64253;BME280;50592;52.958;-7.470;2023-02-12T09:23:49;102252.56;;;7.75;100.00
64253;BME280;50592;52.958;-7.470;2023-02-12T09:26:17;102252.41;;;7.78;100.00
64253;BME280;50592;52.958;-7.470;2023-02-12T09:28:46;102255.03;;;7.78;100.00
64253;BME280;50592;52.958;-7.470;2023-02-12T09:31:14;102253.25;;;7.79;100.00
64253;BME280;50592;52.958;-7.470;2023-02-12T09:33:41;102249.78;;;7.78;100.00
64253;BME280;50592;52.958;-7.470;2023-02-12T09:36:10;102248.69;;;7.82;100.00
64253;BME280;50592;52.958;-7.470;2023-02-12T09:38:37;102245.19;;;7.82;100.00
64253;BME280;50592;52.958;-7.470;2023-02-12T09:44:06;102235.34;;;7.86;100.00
64253;BME280;50592;52.958;-7.470;2023-02-12T09:49:32;102229.16;;;7.87;100.00
64253;BME280;50592;52.958;-7.470;2023-02-12T09:52:05;102222.97;;;7.88;100.00
64253;BME280;50592;52.958;-7.470;2023-02-12T09:54:37;102214.03;;;7.90;100.00
64253;BME280;50592;52.958;-7.470;2023-02-12T09:57:16;102222.63;;;7.94;100.00
64253;BME280;50592;52.958;-7.470;2023-02-12T09:59:47;102214.66;;;7.96;100.00
64253;BME280;50592;52.958;-7.470;2023-02-12T10:02:16;102221.34;;;8.01;100.00
64253;BME280;50592;52.958;-7.470;2023-02-12T10:04:43;102221.19;;;8.04;100.00
64253;BME280;50592;52.958;-7.470;2023-02-12T10:10:47;102219.16;;;8.10;100.00
64253;BME280;50592;52.958;-7.470;2023-02-12T10:13:34;102221.00;;;8.07;100.00
64253;BME280;50592;52.958;-7.470;2023-02-12T10:16:08;102208.97;;;8.03;100.00
64253;BME280;50592;52.958;-7.470;2023-02-12T10:18:57;102212.44;;;8.04;100.00
64253;BME280;50592;52.958;-7.470;2023-02-12T10:26:54;102208.00;;;8.04;100.00
64253;BME280;50592;52.958;-7.470;2023-02-12T10:29:33;102200.88;;;8.06;100.00
64253;BME280;50592;52.958;-7.470;2023-02-12T10:32:11;102200.88;;;8.06;100.00
64253;BME280;50592;52.958;-7.470;2023-02-12T10:34:40;102205.03;;;8.11;100.00
64253;BME280;50592;52.958;-7.470;2023-02-12T10:37:24;102208.44;;;8.13;100.00
64253;BME280;50592;52.958;-7.470;2023-02-12T10:39:55;102199.56;;;8.15;100.00
64253;BME280;50592;52.958;-7.470;2023-02-12T10:42:37;102200.97;;;8.21;100.00
64253;BME280;50592;52.958;-7.470;2023-02-12T10:45:05;102200.03;;;8.22;100.00
64253;BME280;50592;52.958;-7.470;2023-02-12T10:47:36;102202.59;;;8.24;100.00
64253;BME280;50592;52.958;-7.470;2023-02-12T10:50:19;102201.50;;;8.28;100.00
64253;BME280;50592;52.958;-7.470;2023-02-12T10:52:50;102202.25;;;8.30;100.00
64253;BME280;50592;52.958;-7.470;2023-02-12T10:57:48;102204.78;;;8.31;100.00
64253;BME280;50592;52.958;-7.470;2023-02-12T11:00:31;102206.06;;;8.40;100.00
64253;BME280;50592;52.958;-7.470;2023-02-12T11:05:28;102198.16;;;8.40;100.00
64253;BME280;50592;52.958;-7.470;2023-02-12T11:07:54;102201.91;;;8.36;100.00
64253;BME280;50592;52.958;-7.470;2023-02-12T11:10:39;102202.59;;;8.40;100.00
64253;BME280;50592;52.958;-7.470;2023-02-12T11:13:25;102195.72;;;8.37;100.00
64253;BME280;50592;52.958;-7.470;2023-02-12T11:15:52;102196.31;;;8.26;100.00
64253;BME280;50592;52.958;-7.470;2023-02-12T11:18:29;102190.78;;;8.31;100.00
64253;BME280;50592;52.958;-7.470;2023-02-12T11:20:59;102186.34;;;8.31;100.00
64253;BME280;50592;52.958;-7.470;2023-02-12T11:23:36;102195.78;;;8.36;100.00
64253;BME280;50592;52.958;-7.470;2023-02-12T11:29:38;102189.75;;;8.34;100.00
64253;BME280;50592;52.958;-7.470;2023-02-12T11:32:00;102192.22;;;8.37;100.00
64253;BME280;50592;52.958;-7.470;2023-02-12T11:34:27;102183.38;;;8.38;100.00
64253;BME280;50592;52.958;-7.470;2023-02-12T11:36:54;102188.31;;;8.44;100.00
64253;BME280;50592;52.958;-7.470;2023-02-12T11:41:56;102180.72;;;8.38;100.00
64253;BME280;50592;52.958;-7.470;2023-02-12T11:44:24;102183.13;;;8.42;100.00
64253;BME280;50592;52.958;-7.470;2023-02-12T11:47:03;102178.59;;;8.44;100.00
64253;BME280;50592;52.958;-7.470;2023-02-12T11:49:38;102179.13;;;8.51;100.00
64253;BME280;50592;52.958;-7.470;2023-02-12T11:52:05;102163.56;;;8.47;100.00
64253;BME280;50592;52.958;-7.470;2023-02-12T11:54:41;102172.88;;;8.52;100.00
64253;BME280;50592;52.958;-7.470;2023-02-12T11:57:34;102164.84;;;8.55;100.00
64253;BME280;50592;52.958;-7.470;2023-02-12T12:00:13;102173.44;;;8.59;100.00
64253;BME280;50592;52.958;-7.470;2023-02-12T12:03:11;102159.38;;;8.59;100.00
64253;BME280;50592;52.958;-7.470;2023-02-12T12:05:44;102162.72;;;8.62;100.00
64253;BME280;50592;52.958;-7.470;2023-02-12T12:11:05;102147.47;;;8.67;100.00
64253;BME280;50592;52.958;-7.470;2023-02-12T12:16:36;102147.97;;;8.74;100.00
64253;BME280;50592;52.958;-7.470;2023-02-12T12:19:34;102145.34;;;8.74;100.00
64253;BME280;50592;52.958;-7.470;2023-02-12T12:28:10;102138.94;;;8.78;100.00
64253;BME280;50592;52.958;-7.470;2023-02-12T12:31:12;102138.16;;;8.76;100.00
64253;BME280;50592;52.958;-7.470;2023-02-12T12:33:46;102132.06;;;8.76;100.00
64253;BME280;50592;52.958;-7.470;2023-02-12T12:41:49;102124.25;;;8.74;100.00
64253;BME280;50592;52.958;-7.470;2023-02-12T13:10:56;102093.72;;;8.70;100.00
64253;BME280;50592;52.958;-7.470;2023-02-12T13:13:30;102100.13;;;8.66;100.00
64253;BME280;50592;52.958;-7.470;2023-02-12T13:16:15;102089.41;;;8.69;100.00
64253;BME280;50592;52.958;-7.470;2023-02-12T13:26:59;102084.59;;;8.61;100.00
64253;BME280;50592;52.958;-7.470;2023-02-12T13:32:33;102069.81;;;8.73;100.00
64253;BME280;50592;52.958;-7.470;2023-02-12T13:35:01;102070.38;;;8.78;100.00
64253;BME280;50592;52.958;-7.470;2023-02-12T13:37:39;102069.34;;;8.81;100.00
64253;BME280;50592;52.958;-7.470;2023-02-12T13:40:15;102077.84;;;8.86;100.00
64253;BME280;50592;52.958;-7.470;2023-02-12T13:45:58;102070.50;;;8.91;100.00
64253;BME280;50592;52.958;-7.470;2023-02-12T13:56:57;102062.78;;;8.88;100.00
64253;BME280;50592;52.958;-7.470;2023-02-12T14:04:41;102066.44;;;8.71;100.00
64253;BME280;50592;52.958;-7.470;2023-02-12T14:07:10;102063.81;;;8.71;100.00
64253;BME280;50592;52.958;-7.470;2023-02-12T14:09:40;102062.84;;;8.72;100.00
64253;BME280;50592;52.958;-7.470;2023-02-12T14:12:31;102066.78;;;8.79;100.00
64253;BME280;50592;52.958;-7.470;2023-02-12T14:23:34;102061.16;;;8.71;100.00
64253;BME280;50592;52.958;-7.470;2023-02-12T14:26:12;102056.91;;;8.68;100.00
64253;BME280;50592;52.958;-7.470;2023-02-12T14:28:59;102060.03;;;8.75;100.00
64253;BME280;50592;52.958;-7.470;2023-02-12T14:36:48;102039.78;;;8.61;100.00
64253;BME280;50592;52.958;-7.470;2023-02-12T14:39:33;102044.28;;;8.59;100.00
64253;BME280;50592;52.958;-7.470;2023-02-12T14:44:42;102034.03;;;8.69;100.00
64253;BME280;50592;52.958;-7.470;2023-02-12T14:50:00;102028.66;;;8.71;100.00
64253;BME280;50592;52.958;-7.470;2023-02-12T14:52:37;102029.25;;;8.76;100.00
64253;BME280;50592;52.958;-7.470;2023-02-12T14:55:16;102029.44;;;8.73;100.00
64253;BME280;50592;52.958;-7.470;2023-02-12T14:57:43;102035.72;;;8.70;100.00
64253;BME280;50592;52.958;-7.470;2023-02-12T15:02:44;102033.56;;;8.77;100.00
64253;BME280;50592;52.958;-7.470;2023-02-12T15:05:19;102035.16;;;8.79;100.00
64253;BME280;50592;52.958;-7.470;2023-02-12T15:10:31;102030.66;;;8.81;100.00
64253;BME280;50592;52.958;-7.470;2023-02-12T15:15:52;102035.25;;;8.78;100.00
64253;BME280;50592;52.958;-7.470;2023-02-12T15:21:25;102038.25;;;8.72;100.00
64253;BME280;50592;52.958;-7.470;2023-02-12T15:24:02;102032.31;;;8.68;100.00
64253;BME280;50592;52.958;-7.470;2023-02-12T15:26:32;102035.22;;;8.63;100.00
64253;BME280;50592;52.958;-7.470;2023-02-12T15:28:59;102034.41;;;8.63;100.00
64253;BME280;50592;52.958;-7.470;2023-02-12T15:31:28;102025.63;;;8.62;100.00
64253;BME280;50592;52.958;-7.470;2023-02-12T15:33:57;102038.72;;;8.64;100.00
64253;BME280;50592;52.958;-7.470;2023-02-12T15:36:26;102025.72;;;8.61;100.00
64253;BME280;50592;52.958;-7.470;2023-02-12T15:38:58;102024.78;;;8.62;100.00
64253;BME280;50592;52.958;-7.470;2023-02-12T15:43:59;102010.09;;;8.58;100.00
64253;BME280;50592;52.958;-7.470;2023-02-12T15:46:26;102016.66;;;8.50;100.00
64253;BME280;50592;52.958;-7.470;2023-02-12T15:48:52;102013.06;;;8.51;100.00
64253;BME280;50592;52.958;-7.470;2023-02-12T15:53:52;102010.34;;;8.53;100.00
64253;BME280;50592;52.958;-7.470;2023-02-12T15:56:21;102014.94;;;8.49;100.00